sensor_id;sensor_type;location;lat;lon;timestamp;P1;durP1;ratioP1;P2;durP2;ratioP2
32918;SDS011;19280;42.646;21.150;2023-03-23T00:01:53;32.05;;;18.95;;
32918;SDS011;19280;42.646;21.150;2023-03-23T00:04:20;31.60;;;18.98;;
32918;SDS011;19280;42.646;21.150;2023-03-23T00:06:47;38.85;;;20.90;;
32918;SDS011;19280;42.646;21.150;2023-03-23T00:09:14;31.90;;;20.05;;
32918;SDS011;19280;42.646;21.150;2023-03-23T00:11:41;35.38;;;19.33;;
32918;SDS011;19280;42.646;21.150;2023-03-23T00:14:08;35.97;;;17.95;;
32918;SDS011;19280;42.646;21.150;2023-03-23T00:16:38;34.47;;;19.38;;
32918;SDS011;19280;42.646;21.150;2023-03-23T00:19:06;36.42;;;19.13;;
32918;SDS011;19280;42.646;21.150;2023-03-23T00:21:34;39.42;;;19.30;;
32918;SDS011;19280;42.646;21.150;2023-03-23T00:26:27;30.92;;;18.35;;
32918;SDS011;19280;42.646;21.150;2023-03-23T00:28:54;42.38;;;20.52;;
32918;SDS011;19280;42.646;21.150;2023-03-23T00:31:20;34.03;;;20.73;;
32918;SDS011;19280;42.646;21.150;2023-03-23T00:33:46;37.22;;;19.75;;
32918;SDS011;19280;42.646;21.150;2023-03-23T00:36:13;39.65;;;21.25;;
32918;SDS011;19280;42.646;21.150;2023-03-23T00:38:39;40.60;;;21.55;;
32918;SDS011;19280;42.646;21.150;2023-03-23T00:41:06;36.78;;;19.95;;
32918;SDS011;19280;42.646;21.150;2023-03-23T00:43:36;36.78;;;19.45;;
32918;SDS011;19280;42.646;21.150;2023-03-23T00:46:03;34.60;;;20.17;;
32918;SDS011;19280;42.646;21.150;2023-03-23T00:48:33;30.13;;;19.23;;
32918;SDS011;19280;42.646;21.150;2023-03-23T00:51:00;33.10;;;19.63;;
32918;SDS011;19280;42.646;21.150;2023-03-23T00:53:31;34.08;;;19.77;;
32918;SDS011;19280;42.646;21.150;2023-03-23T00:55:57;37.40;;;20.30;;
32918;SDS011;19280;42.646;21.150;2023-03-23T00:58:23;29.58;;;18.63;;
32918;SDS011;19280;42.646;21.150;2023-03-23T01:00:49;28.52;;;17.92;;
32918;SDS011;19280;42.646;21.150;2023-03-23T01:03:15;36.08;;;19.42;;
32918;SDS011;19280;42.646;21.150;2023-03-23T01:05:43;33.55;;;18.83;;
32918;SDS011;19280;42.646;21.150;2023-03-23T01:08:12;28.55;;;18.85;;
32918;SDS011;19280;42.646;21.150;2023-03-23T01:10:38;29.98;;;20.08;;
32918;SDS011;19280;42.646;21.150;2023-03-23T01:13:05;34.53;;;19.85;;
32918;SDS011;19280;42.646;21.150;2023-03-23T01:15:31;40.90;;;21.60;;
32918;SDS011;19280;42.646;21.150;2023-03-23T01:17:57;48.72;;;24.05;;
32918;SDS011;19280;42.646;21.150;2023-03-23T01:20:23;42.95;;;22.60;;
32918;SDS011;19280;42.646;21.150;2023-03-23T01:22:51;42.85;;;22.27;;
32918;SDS011;19280;42.646;21.150;2023-03-23T01:25:18;54.95;;;26.00;;
32918;SDS011;19280;42.646;21.150;2023-03-23T01:27:44;52.13;;;25.60;;
32918;SDS011;19280;42.646;21.150;2023-03-23T01:30:11;44.72;;;23.38;;
32918;SDS011;19280;42.646;21.150;2023-03-23T01:32:37;45.20;;;24.73;;
32918;SDS011;19280;42.646;21.150;2023-03-23T01:35:03;43.95;;;21.67;;
32918;SDS011;19280;42.646;21.150;2023-03-23T01:37:30;44.33;;;21.00;;
32918;SDS011;19280;42.646;21.150;2023-03-23T01:39:57;33.50;;;20.10;;
32918;SDS011;19280;42.646;21.150;2023-03-23T01:42:29;37.83;;;20.35;;
32918;SDS011;19280;42.646;21.150;2023-03-23T01:45:20;34.55;;;20.13;;
32918;SDS011;19280;42.646;21.150;2023-03-23T01:47:49;30.73;;;19.25;;
32918;SDS011;19280;42.646;21.150;2023-03-23T01:50:16;32.45;;;18.48;;
32918;SDS011;19280;42.646;21.150;2023-03-23T01:52:42;29.40;;;18.42;;
32918;SDS011;19280;42.646;21.150;2023-03-23T01:55:09;35.03;;;17.92;;
32918;SDS011;19280;42.646;21.150;2023-03-23T01:57:35;31.27;;;17.38;;
32918;SDS011;19280;42.646;21.150;2023-03-23T02:00:04;31.42;;;17.33;;
32918;SDS011;19280;42.646;21.150;2023-03-23T02:02:34;23.73;;;15.70;;
32918;SDS011;19280;42.646;21.150;2023-03-23T02:05:02;23.70;;;15.18;;
32918;SDS011;19280;42.646;21.150;2023-03-23T02:07:29;25.60;;;15.73;;
32918;SDS011;19280;42.646;21.150;2023-03-23T02:09:57;31.25;;;15.73;;
32918;SDS011;19280;42.646;21.150;2023-03-23T02:12:24;29.85;;;15.95;;
32918;SDS011;19280;42.646;21.150;2023-03-23T02:14:51;31.08;;;16.08;;
32918;SDS011;19280;42.646;21.150;2023-03-23T02:17:23;28.10;;;15.95;;
32918;SDS011;19280;42.646;21.150;2023-03-23T02:20:32;24.33;;;15.75;;
32918;SDS011;19280;42.646;21.150;2023-03-23T02:34:11;26.60;;;15.80;;
32918;SDS011;19280;42.646;21.150;2023-03-23T02:41:41;26.13;;;16.58;;
32918;SDS011;19280;42.646;21.150;2023-03-23T02:44:08;25.17;;;16.00;;
32918;SDS011;19280;42.646;21.150;2023-03-23T02:46:36;28.25;;;16.67;;
32918;SDS011;19280;42.646;21.150;2023-03-23T02:49:03;29.25;;;17.25;;
32918;SDS011;19280;42.646;21.150;2023-03-23T02:51:29;26.27;;;16.40;;
32918;SDS011;19280;42.646;21.150;2023-03-23T02:53:56;25.02;;;16.23;;
32918;SDS011;19280;42.646;21.150;2023-03-23T02:56:25;29.45;;;15.93;;
32918;SDS011;19280;42.646;21.150;2023-03-23T02:58:52;25.38;;;15.90;;
32918;SDS011;19280;42.646;21.150;2023-03-23T03:11:28;27.42;;;16.98;;
32918;SDS011;19280;42.646;21.150;2023-03-23T03:21:20;62.25;;;37.45;;
32918;SDS011;19280;42.646;21.150;2023-03-23T03:23:50;77.45;;;41.35;;
32918;SDS011;19280;42.646;21.150;2023-03-23T03:26:17;85.07;;;41.97;;
32918;SDS011;19280;42.646;21.150;2023-03-23T03:28:46;81.22;;;43.42;;
32918;SDS011;19280;42.646;21.150;2023-03-23T03:31:13;88.68;;;45.22;;
32918;SDS011;19280;42.646;21.150;2023-03-23T03:33:40;83.55;;;45.58;;
32918;SDS011;19280;42.646;21.150;2023-03-23T03:36:06;82.25;;;44.03;;
32918;SDS011;19280;42.646;21.150;2023-03-23T03:38:40;97.95;;;45.38;;
32918;SDS011;19280;42.646;21.150;2023-03-23T03:41:07;85.47;;;47.25;;
32918;SDS011;19280;42.646;21.150;2023-03-23T03:43:33;91.63;;;48.92;;
32918;SDS011;19280;42.646;21.150;2023-03-23T03:46:00;92.68;;;50.33;;
32918;SDS011;19280;42.646;21.150;2023-03-23T03:48:26;77.35;;;41.25;;
32918;SDS011;19280;42.646;21.150;2023-03-23T03:50:52;60.42;;;33.65;;
32918;SDS011;19280;42.646;21.150;2023-03-23T03:53:21;74.15;;;40.28;;
32918;SDS011;19280;42.646;21.150;2023-03-23T03:55:47;59.45;;;37.30;;
32918;SDS011;19280;42.646;21.150;2023-03-23T03:58:14;67.50;;;38.03;;
32918;SDS011;19280;42.646;21.150;2023-03-23T04:00:40;62.13;;;32.78;;
32918;SDS011;19280;42.646;21.150;2023-03-23T04:03:07;64.43;;;38.10;;
32918;SDS011;19280;42.646;21.150;2023-03-23T04:05:34;60.70;;;33.17;;
32918;SDS011;19280;42.646;21.150;2023-03-23T04:08:02;68.30;;;33.80;;
32918;SDS011;19280;42.646;21.150;2023-03-23T04:10:29;51.63;;;29.48;;
32918;SDS011;19280;42.646;21.150;2023-03-23T04:12:55;50.42;;;28.60;;
32918;SDS011;19280;42.646;21.150;2023-03-23T04:15:21;72.45;;;37.42;;
32918;SDS011;19280;42.646;21.150;2023-03-23T04:17:47;64.95;;;34.78;;
32918;SDS011;19280;42.646;21.150;2023-03-23T04:20:15;59.08;;;36.97;;
32918;SDS011;19280;42.646;21.150;2023-03-23T04:22:46;56.65;;;32.97;;
32918;SDS011;19280;42.646;21.150;2023-03-23T04:25:18;39.97;;;25.63;;
32918;SDS011;19280;42.646;21.150;2023-03-23T04:27:46;44.95;;;25.58;;
32918;SDS011;19280;42.646;21.150;2023-03-23T04:30:17;46.17;;;26.88;;
32918;SDS011;19280;42.646;21.150;2023-03-23T04:32:44;36.58;;;20.90;;
32918;SDS011;19280;42.646;21.150;2023-03-23T04:35:12;40.47;;;21.67;;
32918;SDS011;19280;42.646;21.150;2023-03-23T04:37:39;32.60;;;20.48;;
32918;SDS011;19280;42.646;21.150;2023-03-23T04:40:06;29.65;;;19.23;;
32918;SDS011;19280;42.646;21.150;2023-03-23T04:42:36;34.60;;;21.35;;
32918;SDS011;19280;42.646;21.150;2023-03-23T04:45:03;37.28;;;21.15;;
32918;SDS011;19280;42.646;21.150;2023-03-23T04:47:33;42.72;;;22.38;;
32918;SDS011;19280;42.646;21.150;2023-03-23T04:50:04;30.65;;;20.75;;
32918;SDS011;19280;42.646;21.150;2023-03-23T04:52:31;40.03;;;24.13;;
32918;SDS011;19280;42.646;21.150;2023-03-23T04:54:57;43.45;;;25.23;;
32918;SDS011;19280;42.646;21.150;2023-03-23T04:57:23;46.45;;;30.42;;
32918;SDS011;19280;42.646;21.150;2023-03-23T04:59:53;53.90;;;30.23;;
32918;SDS011;19280;42.646;21.150;2023-03-23T05:02:19;114.13;;;53.45;;
32918;SDS011;19280;42.646;21.150;2023-03-23T05:04:45;94.72;;;45.63;;
32918;SDS011;19280;42.646;21.150;2023-03-23T05:07:11;53.55;;;30.08;;
32918;SDS011;19280;42.646;21.150;2023-03-23T05:09:37;37.70;;;22.95;;
32918;SDS011;19280;42.646;21.150;2023-03-23T05:12:07;42.45;;;23.88;;
32918;SDS011;19280;42.646;21.150;2023-03-23T05:14:34;40.45;;;23.75;;
32918;SDS011;19280;42.646;21.150;2023-03-23T05:17:00;44.33;;;25.48;;
32918;SDS011;19280;42.646;21.150;2023-03-23T05:19:26;41.35;;;23.02;;
32918;SDS011;19280;42.646;21.150;2023-03-23T05:21:53;33.25;;;17.85;;
32918;SDS011;19280;42.646;21.150;2023-03-23T05:24:19;22.00;;;15.07;;
32918;SDS011;19280;42.646;21.150;2023-03-23T05:26:45;35.42;;;19.48;;
32918;SDS011;19280;42.646;21.150;2023-03-23T05:29:13;26.80;;;16.88;;
32918;SDS011;19280;42.646;21.150;2023-03-23T05:31:39;22.45;;;14.88;;
32918;SDS011;19280;42.646;21.150;2023-03-23T05:34:05;18.17;;;11.05;;
32918;SDS011;19280;42.646;21.150;2023-03-23T05:36:33;22.10;;;12.48;;
32918;SDS011;19280;42.646;21.150;2023-03-23T05:38:59;20.80;;;12.75;;
32918;SDS011;19280;42.646;21.150;2023-03-23T05:41:28;23.35;;;14.20;;
32918;SDS011;19280;42.646;21.150;2023-03-23T05:43:54;39.40;;;19.08;;
32918;SDS011;19280;42.646;21.150;2023-03-23T05:46:20;37.30;;;18.10;;
32918;SDS011;19280;42.646;21.150;2023-03-23T05:48:47;26.88;;;15.90;;
32918;SDS011;19280;42.646;21.150;2023-03-23T05:51:13;31.65;;;17.65;;
32918;SDS011;19280;42.646;21.150;2023-03-23T05:53:39;36.20;;;19.42;;
32918;SDS011;19280;42.646;21.150;2023-03-23T05:56:06;38.75;;;23.63;;
32918;SDS011;19280;42.646;21.150;2023-03-23T05:58:33;37.58;;;23.27;;
32918;SDS011;19280;42.646;21.150;2023-03-23T06:00:59;31.90;;;20.02;;
32918;SDS011;19280;42.646;21.150;2023-03-23T06:03:25;37.05;;;18.65;;
32918;SDS011;19280;42.646;21.150;2023-03-23T06:05:51;34.70;;;17.30;;
32918;SDS011;19280;42.646;21.150;2023-03-23T06:08:17;30.63;;;15.98;;
32918;SDS011;19280;42.646;21.150;2023-03-23T06:10:43;26.58;;;14.75;;
32918;SDS011;19280;42.646;21.150;2023-03-23T06:13:10;25.33;;;16.58;;
32918;SDS011;19280;42.646;21.150;2023-03-23T06:15:36;27.23;;;15.50;;
32918;SDS011;19280;42.646;21.150;2023-03-23T06:18:03;32.88;;;14.80;;
32918;SDS011;19280;42.646;21.150;2023-03-23T06:20:39;26.52;;;14.65;;
32918;SDS011;19280;42.646;21.150;2023-03-23T06:23:07;26.15;;;12.50;;
32918;SDS011;19280;42.646;21.150;2023-03-23T06:25:33;20.15;;;12.38;;
32918;SDS011;19280;42.646;21.150;2023-03-23T06:27:59;17.92;;;11.65;;
32918;SDS011;19280;42.646;21.150;2023-03-23T06:30:25;21.90;;;12.23;;
32918;SDS011;19280;42.646;21.150;2023-03-23T06:32:52;21.02;;;13.27;;
32918;SDS011;19280;42.646;21.150;2023-03-23T06:35:18;24.33;;;12.63;;
32918;SDS011;19280;42.646;21.150;2023-03-23T06:37:45;26.00;;;13.43;;
32918;SDS011;19280;42.646;21.150;2023-03-23T06:40:11;20.50;;;13.48;;
32918;SDS011;19280;42.646;21.150;2023-03-23T06:42:37;24.77;;;13.45;;
32918;SDS011;19280;42.646;21.150;2023-03-23T06:47:29;35.30;;;13.50;;
32918;SDS011;19280;42.646;21.150;2023-03-23T06:49:56;22.85;;;11.90;;
32918;SDS011;19280;42.646;21.150;2023-03-23T06:52:22;17.77;;;10.98;;
32918;SDS011;19280;42.646;21.150;2023-03-23T06:54:49;20.38;;;9.60;;
32918;SDS011;19280;42.646;21.150;2023-03-23T06:57:16;15.88;;;7.80;;
32918;SDS011;19280;42.646;21.150;2023-03-23T06:59:42;15.38;;;6.88;;
32918;SDS011;19280;42.646;21.150;2023-03-23T07:02:09;11.88;;;6.35;;
32918;SDS011;19280;42.646;21.150;2023-03-23T07:04:36;16.20;;;6.15;;
32918;SDS011;19280;42.646;21.150;2023-03-23T07:07:02;15.93;;;6.28;;
32918;SDS011;19280;42.646;21.150;2023-03-23T07:09:28;16.63;;;6.50;;
32918;SDS011;19280;42.646;21.150;2023-03-23T07:11:55;14.98;;;5.95;;
32918;SDS011;19280;42.646;21.150;2023-03-23T07:14:21;10.57;;;6.97;;
32918;SDS011;19280;42.646;21.150;2023-03-23T07:16:48;15.60;;;6.60;;
32918;SDS011;19280;42.646;21.150;2023-03-23T07:19:14;14.45;;;6.88;;
32918;SDS011;19280;42.646;21.150;2023-03-23T07:21:40;14.15;;;7.05;;
32918;SDS011;19280;42.646;21.150;2023-03-23T07:24:09;18.98;;;6.50;;
32918;SDS011;19280;42.646;21.150;2023-03-23T07:26:37;10.80;;;6.55;;
32918;SDS011;19280;42.646;21.150;2023-03-23T07:29:03;14.38;;;6.97;;
32918;SDS011;19280;42.646;21.150;2023-03-23T07:31:29;15.68;;;6.90;;
32918;SDS011;19280;42.646;21.150;2023-03-23T07:33:55;13.63;;;6.72;;
32918;SDS011;19280;42.646;21.150;2023-03-23T07:36:21;9.18;;;5.93;;
32918;SDS011;19280;42.646;21.150;2023-03-23T07:38:48;11.35;;;6.40;;
32918;SDS011;19280;42.646;21.150;2023-03-23T07:41:14;10.77;;;6.10;;
32918;SDS011;19280;42.646;21.150;2023-03-23T07:43:40;13.13;;;6.18;;
32918;SDS011;19280;42.646;21.150;2023-03-23T07:46:06;12.07;;;5.97;;
32918;SDS011;19280;42.646;21.150;2023-03-23T07:48:32;14.82;;;6.63;;
32918;SDS011;19280;42.646;21.150;2023-03-23T07:50:59;8.90;;;5.82;;
32918;SDS011;19280;42.646;21.150;2023-03-23T07:53:25;14.80;;;5.72;;
32918;SDS011;19280;42.646;21.150;2023-03-23T07:55:51;11.02;;;5.50;;
32918;SDS011;19280;42.646;21.150;2023-03-23T07:58:18;15.68;;;5.57;;
32918;SDS011;19280;42.646;21.150;2023-03-23T08:00:48;9.48;;;5.57;;
32918;SDS011;19280;42.646;21.150;2023-03-23T08:03:15;8.27;;;5.10;;
32918;SDS011;19280;42.646;21.150;2023-03-23T08:05:43;13.20;;;6.70;;
32918;SDS011;19280;42.646;21.150;2023-03-23T08:08:09;13.32;;;5.65;;
32918;SDS011;19280;42.646;21.150;2023-03-23T08:10:36;12.27;;;5.72;;
32918;SDS011;19280;42.646;21.150;2023-03-23T08:13:02;7.65;;;5.28;;
32918;SDS011;19280;42.646;21.150;2023-03-23T08:15:28;7.60;;;5.20;;
32918;SDS011;19280;42.646;21.150;2023-03-23T08:17:55;12.75;;;5.20;;
32918;SDS011;19280;42.646;21.150;2023-03-23T08:20:21;7.05;;;4.93;;
32918;SDS011;19280;42.646;21.150;2023-03-23T08:22:52;8.18;;;4.80;;
32918;SDS011;19280;42.646;21.150;2023-03-23T08:25:37;8.77;;;5.10;;
32918;SDS011;19280;42.646;21.150;2023-03-23T08:28:03;7.05;;;5.03;;
32918;SDS011;19280;42.646;21.150;2023-03-23T08:30:30;9.50;;;5.20;;
32918;SDS011;19280;42.646;21.150;2023-03-23T08:32:58;5.90;;;4.47;;
32918;SDS011;19280;42.646;21.150;2023-03-23T08:35:26;10.65;;;4.90;;
32918;SDS011;19280;42.646;21.150;2023-03-23T08:37:53;10.55;;;5.00;;
32918;SDS011;19280;42.646;21.150;2023-03-23T08:40:20;9.63;;;4.97;;
32918;SDS011;19280;42.646;21.150;2023-03-23T08:42:47;9.20;;;5.53;;
32918;SDS011;19280;42.646;21.150;2023-03-23T08:45:14;10.35;;;6.10;;
32918;SDS011;19280;42.646;21.150;2023-03-23T08:47:41;17.05;;;6.13;;
32918;SDS011;19280;42.646;21.150;2023-03-23T08:50:09;11.68;;;6.15;;
32918;SDS011;19280;42.646;21.150;2023-03-23T08:52:36;11.02;;;5.88;;
32918;SDS011;19280;42.646;21.150;2023-03-23T08:55:02;15.88;;;5.80;;
32918;SDS011;19280;42.646;21.150;2023-03-23T08:57:28;23.05;;;8.35;;
32918;SDS011;19280;42.646;21.150;2023-03-23T08:59:55;18.40;;;7.20;;
32918;SDS011;19280;42.646;21.150;2023-03-23T09:02:25;15.65;;;6.43;;
32918;SDS011;19280;42.646;21.150;2023-03-23T09:04:52;13.90;;;6.80;;
32918;SDS011;19280;42.646;21.150;2023-03-23T09:07:18;24.92;;;8.25;;
32918;SDS011;19280;42.646;21.150;2023-03-23T09:09:44;16.52;;;6.80;;
32918;SDS011;19280;42.646;21.150;2023-03-23T09:12:10;20.83;;;6.82;;
32918;SDS011;19280;42.646;21.150;2023-03-23T09:14:37;23.85;;;7.68;;
32918;SDS011;19280;42.646;21.150;2023-03-23T09:17:03;25.25;;;9.70;;
32918;SDS011;19280;42.646;21.150;2023-03-23T09:19:30;29.05;;;9.20;;
32918;SDS011;19280;42.646;21.150;2023-03-23T09:21:56;21.02;;;11.35;;
32918;SDS011;19280;42.646;21.150;2023-03-23T09:24:22;21.60;;;9.13;;
32918;SDS011;19280;42.646;21.150;2023-03-23T09:26:48;14.25;;;6.53;;
32918;SDS011;19280;42.646;21.150;2023-03-23T09:29:14;15.73;;;6.22;;
32918;SDS011;19280;42.646;21.150;2023-03-23T09:31:40;17.30;;;5.85;;
32918;SDS011;19280;42.646;21.150;2023-03-23T09:34:07;10.23;;;6.05;;
32918;SDS011;19280;42.646;21.150;2023-03-23T09:36:35;12.77;;;5.70;;
32918;SDS011;19280;42.646;21.150;2023-03-23T09:44:31;10.50;;;3.88;;
32918;SDS011;19280;42.646;21.150;2023-03-23T09:47:22;10.77;;;4.30;;
32918;SDS011;19280;42.646;21.150;2023-03-23T09:52:17;8.27;;;4.40;;
32918;SDS011;19280;42.646;21.150;2023-03-23T09:54:53;7.75;;;4.70;;
32918;SDS011;19280;42.646;21.150;2023-03-23T09:57:23;10.63;;;4.63;;
32918;SDS011;19280;42.646;21.150;2023-03-23T10:02:38;12.43;;;4.47;;
32918;SDS011;19280;42.646;21.150;2023-03-23T10:07:44;10.52;;;4.78;;
32918;SDS011;19280;42.646;21.150;2023-03-23T10:10:12;16.98;;;5.25;;
32918;SDS011;19280;42.646;21.150;2023-03-23T10:12:49;9.10;;;3.65;;
32918;SDS011;19280;42.646;21.150;2023-03-23T10:15:20;10.23;;;4.03;;
32918;SDS011;19280;42.646;21.150;2023-03-23T10:20:29;17.38;;;4.80;;
32918;SDS011;19280;42.646;21.150;2023-03-23T10:25:46;15.48;;;5.00;;
32918;SDS011;19280;42.646;21.150;2023-03-23T10:28:18;12.23;;;4.22;;
32918;SDS011;19280;42.646;21.150;2023-03-23T10:30:46;19.27;;;4.88;;
32918;SDS011;19280;42.646;21.150;2023-03-23T10:40:59;11.02;;;4.35;;
32918;SDS011;19280;42.646;21.150;2023-03-23T10:43:26;10.40;;;4.18;;
32918;SDS011;19280;42.646;21.150;2023-03-23T10:46:03;11.60;;;4.78;;
32918;SDS011;19280;42.646;21.150;2023-03-23T10:48:33;13.88;;;5.03;;
32918;SDS011;19280;42.646;21.150;2023-03-23T10:51:02;10.38;;;4.65;;
32918;SDS011;19280;42.646;21.150;2023-03-23T10:53:33;11.43;;;4.70;;
32918;SDS011;19280;42.646;21.150;2023-03-23T10:56:00;20.10;;;4.93;;
32918;SDS011;19280;42.646;21.150;2023-03-23T10:58:27;14.23;;;4.10;;
32918;SDS011;19280;42.646;21.150;2023-03-23T11:00:54;11.07;;;4.93;;
32918;SDS011;19280;42.646;21.150;2023-03-23T11:08:15;11.82;;;4.90;;
32918;SDS011;19280;42.646;21.150;2023-03-23T11:10:47;16.45;;;5.47;;
32918;SDS011;19280;42.646;21.150;2023-03-23T11:13:13;11.27;;;4.97;;
32918;SDS011;19280;42.646;21.150;2023-03-23T11:15:41;16.77;;;4.43;;
32918;SDS011;19280;42.646;21.150;2023-03-23T11:18:21;11.40;;;4.95;;
32918;SDS011;19280;42.646;21.150;2023-03-23T11:20:51;13.85;;;5.10;;
32918;SDS011;19280;42.646;21.150;2023-03-23T11:23:30;11.88;;;5.20;;
32918;SDS011;19280;42.646;21.150;2023-03-23T11:26:17;9.40;;;4.47;;
32918;SDS011;19280;42.646;21.150;2023-03-23T11:29:09;9.23;;;4.32;;
32918;SDS011;19280;42.646;21.150;2023-03-23T11:31:34;14.98;;;4.80;;
32918;SDS011;19280;42.646;21.150;2023-03-23T11:34:05;11.30;;;5.18;;
32918;SDS011;19280;42.646;21.150;2023-03-23T11:36:39;19.23;;;4.68;;
32918;SDS011;19280;42.646;21.150;2023-03-23T11:39:20;10.82;;;5.25;;
32918;SDS011;19280;42.646;21.150;2023-03-23T11:41:47;8.55;;;4.85;;
32918;SDS011;19280;42.646;21.150;2023-03-23T11:44:13;11.90;;;5.15;;
32918;SDS011;19280;42.646;21.150;2023-03-23T11:49:37;10.25;;;5.10;;
32918;SDS011;19280;42.646;21.150;2023-03-23T11:52:16;9.13;;;5.00;;
32918;SDS011;19280;42.646;21.150;2023-03-23T11:55:04;14.25;;;5.35;;
32918;SDS011;19280;42.646;21.150;2023-03-23T11:57:34;8.57;;;4.43;;
32918;SDS011;19280;42.646;21.150;2023-03-23T12:00:00;8.48;;;3.90;;
32918;SDS011;19280;42.646;21.150;2023-03-23T12:05:38;7.63;;;3.60;;
32918;SDS011;19280;42.646;21.150;2023-03-23T12:08:17;6.95;;;3.95;;
32918;SDS011;19280;42.646;21.150;2023-03-23T12:10:51;11.18;;;4.65;;
32918;SDS011;19280;42.646;21.150;2023-03-23T12:26:40;10.02;;;4.57;;
32918;SDS011;19280;42.646;21.150;2023-03-23T12:34:24;8.15;;;4.72;;
32918;SDS011;19280;42.646;21.150;2023-03-23T12:44:49;9.57;;;3.80;;
32918;SDS011;19280;42.646;21.150;2023-03-23T12:49:56;11.90;;;4.35;;
32918;SDS011;19280;42.646;21.150;2023-03-23T12:52:32;8.35;;;4.68;;
32918;SDS011;19280;42.646;21.150;2023-03-23T12:55:04;6.75;;;4.85;;
32918;SDS011;19280;42.646;21.150;2023-03-23T12:57:37;10.07;;;6.05;;
32918;SDS011;19280;42.646;21.150;2023-03-23T13:00:24;9.90;;;5.13;;
32918;SDS011;19280;42.646;21.150;2023-03-23T13:02:59;25.02;;;8.10;;
32918;SDS011;19280;42.646;21.150;2023-03-23T13:05:49;9.60;;;4.75;;
32918;SDS011;19280;42.646;21.150;2023-03-23T13:10:47;11.57;;;6.18;;
32918;SDS011;19280;42.646;21.150;2023-03-23T13:13:39;6.05;;;4.00;;
32918;SDS011;19280;42.646;21.150;2023-03-23T13:21:19;11.32;;;5.32;;
32918;SDS011;19280;42.646;21.150;2023-03-23T13:23:49;8.88;;;4.40;;
32918;SDS011;19280;42.646;21.150;2023-03-23T13:26:20;11.07;;;4.68;;
32918;SDS011;19280;42.646;21.150;2023-03-23T13:31:20;13.88;;;4.43;;
32918;SDS011;19280;42.646;21.150;2023-03-23T13:33:51;6.80;;;4.07;;
32918;SDS011;19280;42.646;21.150;2023-03-23T13:36:31;9.98;;;4.57;;
32918;SDS011;19280;42.646;21.150;2023-03-23T13:38:59;11.07;;;4.68;;
32918;SDS011;19280;42.646;21.150;2023-03-23T13:41:25;14.40;;;5.80;;
32918;SDS011;19280;42.646;21.150;2023-03-23T13:43:52;10.93;;;4.40;;
32918;SDS011;19280;42.646;21.150;2023-03-23T13:48:48;8.02;;;4.20;;
32918;SDS011;19280;42.646;21.150;2023-03-23T13:54:03;10.52;;;5.43;;
32918;SDS011;19280;42.646;21.150;2023-03-23T13:56:37;9.63;;;4.68;;
32918;SDS011;19280;42.646;21.150;2023-03-23T13:59:07;10.73;;;4.72;;
32918;SDS011;19280;42.646;21.150;2023-03-23T14:01:34;7.50;;;4.00;;
32918;SDS011;19280;42.646;21.150;2023-03-23T14:04:10;12.52;;;4.95;;
32918;SDS011;19280;42.646;21.150;2023-03-23T14:06:36;6.25;;;4.25;;
32918;SDS011;19280;42.646;21.150;2023-03-23T14:09:26;10.20;;;4.28;;
32918;SDS011;19280;42.646;21.150;2023-03-23T14:11:50;11.07;;;4.78;;
32918;SDS011;19280;42.646;21.150;2023-03-23T14:14:26;12.30;;;4.63;;
32918;SDS011;19280;42.646;21.150;2023-03-23T14:16:53;10.93;;;4.30;;
32918;SDS011;19280;42.646;21.150;2023-03-23T14:19:32;7.90;;;4.53;;
32918;SDS011;19280;42.646;21.150;2023-03-23T14:21:58;10.10;;;4.68;;
32918;SDS011;19280;42.646;21.150;2023-03-23T14:24:26;7.47;;;4.03;;
32918;SDS011;19280;42.646;21.150;2023-03-23T14:26:53;11.05;;;4.32;;
32918;SDS011;19280;42.646;21.150;2023-03-23T14:29:26;9.88;;;5.22;;
32918;SDS011;19280;42.646;21.150;2023-03-23T14:31:54;15.52;;;5.22;;
32918;SDS011;19280;42.646;21.150;2023-03-23T14:34:22;11.32;;;5.35;;
32918;SDS011;19280;42.646;21.150;2023-03-23T14:36:50;8.30;;;5.00;;
32918;SDS011;19280;42.646;21.150;2023-03-23T14:39:22;14.20;;;5.70;;
32918;SDS011;19280;42.646;21.150;2023-03-23T14:41:49;11.10;;;4.88;;
32918;SDS011;19280;42.646;21.150;2023-03-23T14:44:27;10.55;;;4.88;;
32918;SDS011;19280;42.646;21.150;2023-03-23T14:46:54;13.80;;;5.07;;
32918;SDS011;19280;42.646;21.150;2023-03-23T14:49:24;9.98;;;4.85;;
32918;SDS011;19280;42.646;21.150;2023-03-23T14:51:53;15.65;;;5.30;;
32918;SDS011;19280;42.646;21.150;2023-03-23T14:54:24;9.23;;;5.43;;
32918;SDS011;19280;42.646;21.150;2023-03-23T14:56:50;22.38;;;6.45;;
32918;SDS011;19280;42.646;21.150;2023-03-23T14:59:16;11.93;;;5.80;;
32918;SDS011;19280;42.646;21.150;2023-03-23T15:01:43;18.83;;;7.53;;
32918;SDS011;19280;42.646;21.150;2023-03-23T15:04:14;13.00;;;5.47;;
32918;SDS011;19280;42.646;21.150;2023-03-23T15:06:43;13.40;;;6.10;;
32918;SDS011;19280;42.646;21.150;2023-03-23T15:09:12;22.58;;;6.47;;
32918;SDS011;19280;42.646;21.150;2023-03-23T15:11:39;13.68;;;6.07;;
32918;SDS011;19280;42.646;21.150;2023-03-23T15:14:10;10.07;;;4.90;;
32918;SDS011;19280;42.646;21.150;2023-03-23T15:16:39;13.25;;;5.10;;
32918;SDS011;19280;42.646;21.150;2023-03-23T15:19:20;12.77;;;5.57;;
32918;SDS011;19280;42.646;21.150;2023-03-23T15:21:49;13.55;;;5.40;;
32918;SDS011;19280;42.646;21.150;2023-03-23T15:24:20;14.15;;;4.88;;
32918;SDS011;19280;42.646;21.150;2023-03-23T15:26:47;15.25;;;5.28;;
32918;SDS011;19280;42.646;21.150;2023-03-23T15:31:43;17.25;;;5.95;;
32918;SDS011;19280;42.646;21.150;2023-03-23T15:34:16;16.58;;;5.00;;
32918;SDS011;19280;42.646;21.150;2023-03-23T15:36:44;7.82;;;4.65;;
32918;SDS011;19280;42.646;21.150;2023-03-23T15:39:11;10.13;;;4.43;;
32918;SDS011;19280;42.646;21.150;2023-03-23T15:41:45;7.15;;;4.18;;
32918;SDS011;19280;42.646;21.150;2023-03-23T15:44:12;13.52;;;4.85;;
32918;SDS011;19280;42.646;21.150;2023-03-23T15:46:52;9.73;;;5.00;;
32918;SDS011;19280;42.646;21.150;2023-03-23T15:49:18;10.70;;;4.63;;
32918;SDS011;19280;42.646;21.150;2023-03-23T15:51:44;11.10;;;4.60;;
32918;SDS011;19280;42.646;21.150;2023-03-23T15:54:12;14.98;;;6.60;;
32918;SDS011;19280;42.646;21.150;2023-03-23T15:56:39;19.80;;;6.55;;
32918;SDS011;19280;42.646;21.150;2023-03-23T15:59:05;24.00;;;7.40;;
32918;SDS011;19280;42.646;21.150;2023-03-23T16:01:31;16.77;;;5.50;;
32918;SDS011;19280;42.646;21.150;2023-03-23T16:06:30;28.25;;;11.10;;
32918;SDS011;19280;42.646;21.150;2023-03-23T16:08:57;22.10;;;11.23;;
32918;SDS011;19280;42.646;21.150;2023-03-23T16:11:25;24.48;;;9.57;;
32918;SDS011;19280;42.646;21.150;2023-03-23T16:13:51;15.32;;;6.53;;
32918;SDS011;19280;42.646;21.150;2023-03-23T16:16:24;12.93;;;6.38;;
32918;SDS011;19280;42.646;21.150;2023-03-23T16:18:51;15.02;;;6.88;;
32918;SDS011;19280;42.646;21.150;2023-03-23T16:21:18;20.08;;;8.77;;
32918;SDS011;19280;42.646;21.150;2023-03-23T16:23:44;25.27;;;9.18;;
32918;SDS011;19280;42.646;21.150;2023-03-23T16:26:10;15.75;;;7.78;;
32918;SDS011;19280;42.646;21.150;2023-03-23T16:28:36;21.65;;;8.23;;
32918;SDS011;19280;42.646;21.150;2023-03-23T16:31:03;24.23;;;11.68;;
32918;SDS011;19280;42.646;21.150;2023-03-23T16:33:29;31.42;;;8.35;;